createdAt,value
2019-05-10T00:01:01.467Z,62.80
2019-05-10T00:03:48.149Z,63.00
2019-05-10T00:06:34.894Z,63.20
2019-05-10T00:09:04.416Z,63.30
2019-05-10T00:11:49.375Z,63.00
2019-05-10T00:14:36.992Z,62.90
2019-05-10T00:17:07.349Z,63.20
2019-05-10T00:19:36.054Z,63.10
2019-05-10T00:22:04.794Z,63.20
2019-05-10T00:24:33.427Z,63.50
2019-05-10T00:27:02.353Z,63.40
2019-05-10T00:29:30.892Z,63.50
2019-05-10T00:31:59.724Z,63.40
2019-05-10T00:34:28.271Z,63.20
2019-05-10T00:36:56.840Z,63.30
2019-05-10T00:39:25.543Z,63.50
2019-05-10T00:41:54.138Z,63.30
2019-05-10T00:44:22.881Z,63.50
2019-05-10T00:46:51.542Z,63.50
2019-05-10T00:49:20.147Z,63.60
2019-05-10T00:51:48.876Z,63.50
2019-05-10T00:54:17.632Z,63.40
2019-05-10T00:56:46.352Z,63.60
2019-05-10T00:59:14.926Z,63.40
2019-05-10T01:01:43.523Z,63.60
2019-05-10T01:04:12.169Z,63.50
2019-05-10T01:06:40.814Z,63.50
2019-05-10T01:09:09.381Z,63.50
2019-05-10T01:11:38.456Z,63.90
2019-05-10T01:14:07.113Z,64.20
2019-05-10T01:16:35.706Z,64.20
2019-05-10T01:19:04.425Z,64.50
2019-05-10T01:21:33.002Z,64.40
2019-05-10T01:24:01.645Z,64.80
2019-05-10T01:26:30.305Z,65.10
2019-05-10T01:28:59.043Z,65.10
2019-05-10T01:31:27.739Z,65.00
2019-05-10T01:33:56.343Z,65.00
2019-05-10T01:36:25.066Z,65.20
2019-05-10T01:38:53.864Z,65.10
2019-05-10T01:41:22.550Z,65.70
2019-05-10T01:43:51.278Z,65.70
2019-05-10T01:46:19.915Z,66.00
2019-05-10T01:48:48.487Z,66.60
2019-05-10T01:51:17.163Z,66.50
2019-05-10T01:53:45.827Z,66.50
2019-05-10T01:56:14.529Z,66.40
2019-05-10T01:58:43.131Z,66.40
2019-05-10T02:01:11.781Z,66.30
2019-05-10T02:03:40.403Z,66.80
2019-05-10T02:06:09.087Z,66.90
2019-05-10T02:08:37.751Z,66.90
2019-05-10T02:11:06.427Z,67.10
2019-05-10T02:13:35.167Z,67.20
2019-05-10T02:16:03.827Z,68.20
2019-05-10T02:18:32.502Z,69.00
2019-05-10T02:21:01.132Z,69.20
2019-05-10T02:23:29.755Z,69.70
2019-05-10T02:26:08.938Z,70.40
2019-05-10T02:28:28.760Z,70.80
2019-05-10T02:30:57.396Z,71.20
2019-05-10T02:33:26.057Z,71.30
2019-05-10T02:35:54.828Z,71.60
2019-05-10T02:38:23.390Z,71.60
2019-05-10T02:40:53.109Z,71.80
2019-05-10T02:43:21.802Z,71.80
2019-05-10T02:45:50.435Z,71.80
2019-05-10T02:48:19.129Z,71.60
2019-05-10T02:50:47.783Z,72.10
2019-05-10T02:53:17.010Z,72.40
2019-05-10T02:55:45.793Z,72.90
2019-05-10T02:58:15.585Z,73.20
2019-05-10T03:00:46.662Z,73.00
2019-05-10T03:03:17.703Z,73.40
2019-05-10T03:05:48.646Z,73.70
2019-05-10T03:08:17.527Z,73.90
2019-05-10T03:10:57.158Z,73.80
2019-05-10T03:13:28.799Z,73.70
2019-05-10T03:15:59.205Z,73.90
2019-05-10T03:18:31.163Z,73.90
2019-05-10T03:21:01.987Z,74.10
2019-05-10T03:23:30.896Z,73.80
2019-05-10T03:25:59.956Z,73.80
2019-05-10T03:28:28.965Z,73.70
2019-05-10T03:30:57.808Z,73.60
2019-05-10T03:33:26.441Z,73.50
2019-05-10T03:35:55.515Z,73.40
2019-05-10T03:38:24.228Z,73.20
2019-05-10T03:40:53.556Z,73.30
2019-05-10T03:43:22.421Z,73.20
2019-05-10T03:45:51.046Z,73.20
2019-05-10T03:48:19.650Z,73.00
2019-05-10T03:50:48.491Z,72.60
2019-05-10T03:53:17.070Z,72.60
2019-05-10T03:55:45.726Z,72.40
2019-05-10T03:58:14.376Z,72.30
2019-05-10T04:00:43.088Z,72.10
2019-05-10T04:03:11.748Z,72.00
2019-05-10T04:05:40.589Z,71.70
2019-05-10T04:08:09.213Z,71.30
2019-05-10T04:10:37.968Z,71.10
2019-05-10T04:13:06.542Z,70.90
2019-05-10T04:15:35.225Z,70.50
2019-05-10T04:18:03.932Z,70.20
2019-05-10T04:20:32.690Z,69.80
2019-05-10T04:23:01.247Z,69.40
2019-05-10T04:25:29.807Z,69.30
2019-05-10T04:27:58.416Z,69.10
2019-05-10T04:30:31.545Z,68.80
2019-05-10T04:32:57.322Z,69.00
2019-05-10T04:35:25.932Z,68.90
2019-05-10T04:37:54.709Z,68.90
2019-05-10T04:40:23.298Z,68.90
2019-05-10T04:42:51.901Z,68.90
2019-05-10T04:45:20.636Z,68.50
2019-05-10T04:47:49.217Z,68.50
2019-05-10T04:50:17.858Z,68.60
2019-05-10T04:52:46.470Z,68.80
2019-05-10T04:55:15.115Z,68.60
2019-05-10T04:57:50.403Z,68.40
2019-05-10T05:00:15.716Z,68.20
2019-05-10T05:02:44.346Z,68.30
2019-05-10T05:05:13.584Z,68.00
2019-05-10T05:07:42.282Z,67.50
2019-05-10T05:10:11.054Z,67.20
2019-05-10T05:12:39.668Z,66.80
2019-05-10T05:15:09.081Z,66.30
2019-05-10T05:17:37.721Z,65.90
2019-05-10T05:20:06.853Z,65.20
2019-05-10T05:22:35.539Z,64.60
2019-05-10T05:25:06.147Z,63.80
2019-05-10T05:27:34.811Z,63.20
2019-05-10T05:30:08.262Z,62.90
2019-05-10T05:32:38.601Z,62.60
2019-05-10T05:35:07.406Z,62.20
2019-05-10T05:37:36.082Z,61.60
2019-05-10T05:40:09.034Z,59.90
2019-05-10T05:42:37.626Z,59.70
2019-05-10T05:45:08.406Z,59.10
2019-05-10T05:47:37.494Z,58.50
2019-05-10T05:50:07.782Z,57.20
2019-05-10T05:52:36.379Z,56.80
2019-05-10T05:55:08.239Z,57.10
2019-05-10T05:57:37.847Z,56.90
2019-05-10T06:00:07.577Z,57.30
2019-05-10T06:02:44.315Z,57.70
2019-05-10T06:05:06.862Z,58.00
2019-05-10T06:07:38.076Z,58.60
2019-05-10T06:10:10.094Z,58.40
2019-05-10T06:12:37.467Z,58.30
2019-05-10T06:15:07.471Z,58.20
2019-05-10T06:17:36.082Z,57.90
2019-05-10T06:20:07.631Z,58.20
2019-05-10T06:22:38.352Z,58.50
2019-05-10T06:25:08.112Z,58.40
2019-05-10T06:27:41.292Z,58.60
2019-05-10T06:30:07.569Z,58.60
2019-05-10T06:32:36.201Z,58.40
2019-05-10T06:35:06.643Z,57.90
2019-05-10T06:37:35.324Z,57.90
2019-05-10T06:40:06.243Z,57.20
2019-05-10T06:42:36.171Z,57.10
2019-05-10T06:45:14.376Z,56.30
2019-05-10T06:47:42.226Z,56.10
2019-05-10T06:50:09.507Z,56.00
2019-05-10T06:52:38.280Z,56.10
2019-05-10T06:55:08.719Z,55.60
2019-05-10T06:57:37.344Z,55.50
2019-05-10T07:00:08.220Z,55.90
2019-05-10T07:02:37.180Z,55.90
2019-05-10T07:05:06.837Z,56.30
2019-05-10T07:07:44.061Z,56.50
2019-05-10T07:10:15.739Z,56.50
2019-05-10T07:12:38.683Z,56.30
2019-05-10T07:15:08.630Z,56.30
2019-05-10T07:17:45.248Z,56.80
2019-05-10T07:20:09.092Z,56.30
2019-05-10T07:22:37.873Z,56.10
2019-05-10T07:25:07.557Z,56.10
2019-05-10T07:27:38.735Z,56.20
2019-05-10T07:30:08.234Z,56.60
2019-05-10T07:32:37.233Z,56.40
2019-05-10T07:35:07.402Z,56.60
2019-05-10T07:37:36.112Z,56.70
2019-05-10T07:40:07.555Z,56.70
2019-05-10T07:42:39.791Z,56.90
2019-05-10T07:45:09.839Z,56.70
2019-05-10T07:47:38.403Z,56.30
2019-05-10T07:50:09.749Z,55.80
2019-05-10T07:52:43.462Z,55.90
2019-05-10T07:55:10.544Z,55.90
2019-05-10T07:57:39.398Z,55.90
2019-05-10T08:00:09.197Z,55.60
2019-05-10T08:02:38.612Z,55.00
2019-05-10T08:05:11.022Z,54.90
2019-05-10T08:07:38.912Z,55.10
2019-05-10T08:10:08.783Z,55.10
2019-05-10T08:12:41.332Z,54.90
2019-05-10T08:15:09.304Z,54.50
2019-05-10T08:17:43.194Z,54.50
2019-05-10T08:20:16.300Z,54.90
2019-05-10T08:22:44.875Z,55.20
2019-05-10T08:25:12.756Z,55.40
2019-05-10T08:27:43.999Z,55.50
2019-05-10T08:30:22.620Z,55.60
2019-05-10T08:32:42.462Z,54.80
2019-05-10T08:35:16.821Z,54.90
2019-05-10T08:37:43.229Z,54.00
2019-05-10T08:40:12.894Z,53.80
2019-05-10T08:42:48.090Z,53.90
2019-05-10T08:45:12.613Z,54.20
2019-05-10T08:47:42.733Z,54.40
2019-05-10T08:50:29.118Z,55.00
2019-05-10T08:52:42.679Z,55.40
2019-05-10T08:55:12.302Z,55.60
2019-05-10T08:57:44.587Z,56.10
2019-05-10T09:00:13.240Z,56.40
2019-05-10T09:02:42.700Z,56.50
2019-05-10T09:05:12.559Z,56.70
2019-05-10T09:07:42.931Z,56.70
2019-05-10T09:10:12.772Z,56.40
2019-05-10T09:12:50.656Z,56.10
2019-05-10T09:15:13.720Z,56.10
2019-05-10T09:17:43.078Z,56.20
2019-05-10T09:20:21.058Z,56.50
2019-05-10T09:22:42.829Z,56.60
2019-05-10T09:25:12.989Z,56.80
2019-05-10T09:27:43.243Z,56.60
2019-05-10T09:30:18.096Z,56.20
2019-05-10T09:32:43.967Z,56.40
2019-05-10T09:35:13.850Z,56.50
2019-05-10T09:37:42.484Z,56.70
2019-05-10T09:40:13.320Z,56.70
2019-05-10T09:42:43.491Z,56.40
2019-05-10T09:45:13.257Z,56.10
2019-05-10T09:47:43.376Z,55.50
2019-05-10T09:50:13.038Z,55.00
2019-05-10T09:52:41.931Z,54.60
2019-05-10T09:55:14.705Z,54.60
2019-05-10T09:57:40.968Z,54.50
2019-05-10T10:00:11.731Z,55.00
2019-05-10T10:02:41.034Z,55.20
2019-05-10T10:05:09.978Z,55.30
2019-05-10T10:07:38.774Z,56.30
2019-05-10T10:10:12.605Z,57.80
2019-05-10T10:12:39.223Z,58.80
2019-05-10T10:15:10.677Z,59.60
2019-05-10T10:17:42.229Z,59.80
2019-05-10T10:20:08.858Z,60.40
2019-05-10T10:22:38.088Z,62.10
2019-05-10T10:25:07.659Z,61.20
2019-05-10T10:27:39.312Z,61.40
2019-05-10T10:30:12.872Z,61.10
2019-05-10T10:32:38.607Z,60.70
2019-05-10T10:35:07.920Z,60.10
2019-05-10T10:37:37.923Z,60.50
2019-05-10T10:40:09.097Z,61.20
2019-05-10T10:42:38.340Z,60.60
2019-05-10T10:45:08.609Z,59.70
2019-05-10T10:47:38.070Z,59.70
2019-05-10T10:50:13.157Z,58.40
2019-05-10T10:52:40.324Z,57.20
2019-05-10T10:55:13.340Z,56.60
2019-05-10T10:57:40.375Z,55.90
2019-05-10T11:00:10.896Z,54.80
2019-05-10T11:02:41.712Z,53.50
2019-05-10T11:05:10.358Z,52.10
2019-05-10T11:07:44.430Z,52.00
2019-05-10T11:10:17.896Z,52.40
2019-05-10T11:12:41.264Z,51.20
2019-05-10T11:15:11.406Z,51.00
2019-05-10T11:17:40.929Z,49.60
2019-05-10T11:20:11.519Z,48.60
2019-05-10T11:22:41.966Z,47.00
2019-05-10T11:25:12.835Z,46.90
2019-05-10T11:27:41.928Z,46.70
2019-05-10T11:30:12.184Z,45.00
2019-05-10T11:32:42.026Z,43.70
2019-05-10T11:35:16.963Z,44.10
2019-05-10T11:37:45.335Z,44.10
2019-05-10T11:40:18.134Z,44.60
2019-05-10T11:42:47.189Z,44.20
2019-05-10T11:45:14.461Z,44.60
2019-05-10T11:47:43.038Z,43.90
2019-05-10T11:50:27.659Z,45.40
2019-05-10T11:52:43.287Z,46.30
2019-05-10T11:55:13.547Z,46.50
2019-05-10T11:57:44.219Z,46.10
2019-05-10T12:00:24.531Z,46.00
2019-05-10T12:03:03.397Z,46.50
2019-05-10T12:05:20.090Z,47.70
2019-05-10T12:07:46.113Z,48.50
2019-05-10T12:10:20.997Z,48.80
2019-05-10T12:13:04.850Z,49.20
2019-05-10T12:15:15.723Z,49.60
2019-05-10T12:17:46.873Z,49.30
2019-05-10T12:22:47.526Z,50.80
2019-05-10T12:25:36.406Z,51.30
2019-05-10T12:26:50.470Z,49.70
2019-05-10T12:27:49.049Z,51.70
2019-05-10T12:30:17.339Z,50.80
2019-05-10T12:32:55.623Z,49.20
2019-05-10T12:35:16.360Z,46.40
2019-05-10T12:37:49.668Z,44.60
2019-05-10T12:40:15.556Z,43.60
2019-05-10T12:42:46.845Z,42.70
2019-05-10T12:45:15.207Z,42.70
2019-05-10T12:47:43.891Z,43.00
2019-05-10T12:50:12.940Z,43.50
2019-05-10T12:52:43.212Z,44.60
2019-05-10T12:55:15.247Z,44.60
2019-05-10T12:57:43.879Z,45.70
2019-05-10T13:00:15.900Z,46.00
2019-05-10T13:02:44.848Z,46.10
2019-05-10T13:05:15.601Z,46.90
2019-05-10T13:07:44.687Z,47.70
2019-05-10T13:10:13.705Z,49.60
2019-05-10T13:12:46.871Z,50.40
2019-05-10T13:15:13.500Z,50.70
2019-05-10T13:17:50.625Z,51.10
2019-05-10T13:20:13.581Z,50.90
2019-05-10T13:22:42.319Z,50.80
2019-05-10T13:25:11.590Z,49.80
2019-05-10T13:27:40.296Z,48.20
2019-05-10T13:30:09.815Z,47.30
2019-05-10T13:32:38.703Z,45.60
2019-05-10T13:35:07.607Z,44.60
2019-05-10T13:37:36.217Z,42.30
2019-05-10T13:40:08.070Z,40.20
2019-05-10T13:42:43.089Z,36.30
2019-05-10T13:45:07.657Z,33.90
2019-05-10T13:47:37.983Z,32.90
2019-05-10T13:50:11.139Z,31.50
2019-05-10T13:52:41.438Z,30.00
2019-05-10T13:55:10.595Z,29.20
2019-05-10T13:57:39.307Z,28.50
2019-05-10T14:00:09.095Z,28.70
2019-05-10T14:02:39.396Z,27.70
2019-05-10T14:05:12.006Z,27.70
2019-05-10T14:07:39.362Z,27.20
2019-05-10T14:10:08.632Z,26.70
2019-05-10T14:12:37.312Z,25.10
2019-05-10T14:15:12.875Z,24.50
2019-05-10T14:17:37.510Z,23.40
2019-05-10T14:20:19.398Z,22.90
2019-05-10T14:22:48.126Z,22.30
2019-05-10T14:25:12.179Z,21.50
2019-05-10T14:27:40.827Z,22.30
2019-05-10T14:30:13.323Z,23.30
2019-05-10T14:32:41.022Z,24.20
2019-05-10T14:35:09.802Z,25.60
2019-05-10T14:37:38.517Z,26.30
2019-05-10T14:40:08.051Z,27.90
2019-05-10T14:42:37.176Z,28.40
2019-05-10T14:45:06.472Z,28.60
2019-05-10T14:47:46.788Z,29.80
2019-05-10T14:50:07.319Z,31.00
2019-05-10T14:52:35.920Z,32.90
2019-05-10T14:55:06.856Z,33.70
2019-05-10T14:57:35.976Z,35.10
2019-05-10T15:00:06.847Z,35.80
2019-05-10T15:02:35.866Z,36.70
2019-05-10T15:05:08.906Z,37.50
2019-05-10T15:07:36.300Z,38.30
2019-05-10T15:10:07.669Z,38.50
2019-05-10T15:12:36.445Z,38.60
2019-05-10T15:15:06.471Z,36.30
2019-05-10T15:17:35.144Z,32.40
2019-05-10T15:20:07.323Z,30.00
2019-05-10T15:22:35.206Z,29.30
2019-05-10T15:25:05.096Z,28.80
2019-05-10T15:27:34.115Z,27.90
2019-05-10T15:30:05.096Z,27.00
2019-05-10T15:32:33.070Z,26.60
2019-05-10T15:35:07.661Z,27.10
2019-05-10T15:37:32.010Z,26.80
2019-05-10T15:40:05.967Z,27.90
2019-05-10T15:42:36.309Z,27.30
2019-05-10T15:45:05.286Z,26.40
2019-05-10T15:47:31.820Z,25.50
2019-05-10T15:50:01.838Z,26.40
2019-05-10T15:52:30.741Z,27.20
2019-05-10T15:54:59.252Z,28.50
2019-05-10T15:57:27.855Z,29.70
2019-05-10T15:59:58.993Z,31.80
2019-05-10T16:02:26.891Z,33.90
2019-05-10T16:04:57.420Z,35.30
2019-05-10T16:07:26.054Z,36.50
2019-05-10T16:09:56.176Z,37.10
2019-05-10T16:12:25.174Z,37.30
2019-05-10T16:14:53.828Z,37.50
2019-05-10T16:17:24.010Z,37.30
2019-05-10T16:19:59.681Z,36.30
2019-05-10T16:22:25.339Z,34.60
2019-05-10T16:25:00.205Z,33.70
2019-05-10T16:27:24.238Z,32.40
2019-05-10T16:29:52.909Z,32.90
2019-05-10T16:32:21.590Z,31.90
2019-05-10T16:34:50.166Z,31.70
2019-05-10T16:37:18.739Z,31.60
2019-05-10T16:39:47.471Z,31.70
2019-05-10T16:42:16.580Z,31.60
2019-05-10T16:44:45.316Z,31.20
2019-05-10T16:47:15.159Z,31.20
2019-05-10T16:49:47.793Z,31.10
2019-05-10T16:52:14.058Z,31.90
2019-05-10T16:54:43.656Z,33.50
2019-05-10T16:57:12.660Z,34.00
2019-05-10T16:59:41.249Z,34.70
2019-05-10T17:02:11.898Z,35.50
2019-05-10T17:04:40.305Z,36.70
2019-05-10T17:07:12.886Z,38.00
2019-05-10T17:09:39.229Z,39.50
2019-05-10T17:12:07.879Z,40.90
2019-05-10T17:14:36.569Z,41.70
2019-05-10T17:17:05.507Z,41.80
2019-05-10T17:19:36.071Z,41.80
2019-05-10T17:22:04.582Z,42.10
2019-05-10T17:24:33.183Z,42.90
2019-05-10T17:27:01.920Z,43.90
2019-05-10T17:29:30.619Z,45.10
2019-05-10T17:31:59.274Z,46.00
2019-05-10T17:34:29.697Z,46.70
2019-05-10T17:36:59.761Z,47.40
2019-05-10T17:39:32.024Z,48.10
2019-05-10T17:42:03.276Z,48.60
2019-05-10T17:44:30.854Z,49.00
2019-05-10T17:46:59.611Z,49.20
2019-05-10T17:49:28.329Z,49.40
2019-05-10T17:51:57.006Z,49.70
2019-05-10T17:54:25.688Z,49.90
2019-05-10T17:56:54.375Z,50.30
2019-05-10T17:59:23.260Z,50.70
2019-05-10T18:01:51.915Z,51.20
2019-05-10T18:04:20.937Z,51.70
2019-05-10T18:06:49.625Z,52.10
2019-05-10T18:09:20.111Z,52.50
2019-05-10T18:11:48.754Z,52.90
2019-05-10T18:14:18.216Z,53.30
2019-05-10T18:16:49.964Z,53.60
2019-05-10T18:19:19.161Z,53.90
2019-05-10T18:21:48.482Z,54.40
2019-05-10T18:24:17.115Z,54.70
2019-05-10T18:26:45.855Z,55.10
2019-05-10T18:29:16.071Z,55.50
2019-05-10T18:31:54.518Z,55.90
2019-05-10T18:34:14.983Z,56.20
2019-05-10T18:36:51.979Z,56.60
2019-05-10T18:39:24.521Z,57.20
2019-05-10T18:41:53.942Z,57.70
2019-05-10T18:44:22.931Z,58.20
2019-05-10T18:46:51.715Z,59.40
2019-05-10T18:49:20.443Z,59.20
2019-05-10T18:51:49.152Z,59.70
2019-05-10T18:54:17.942Z,60.30
2019-05-10T18:56:50.128Z,60.80
2019-05-10T18:59:19.022Z,61.10
2019-05-10T19:01:48.004Z,61.40
2019-05-10T19:04:16.683Z,61.30
2019-05-10T19:06:49.915Z,61.10
2019-05-10T19:09:16.826Z,61.20
2019-05-10T19:11:45.758Z,61.30
2019-05-10T19:14:14.857Z,61.70
2019-05-10T19:16:44.767Z,62.00
2019-05-10T19:19:13.406Z,62.50
2019-05-10T19:21:42.046Z,63.20
2019-05-10T19:24:10.687Z,63.70
2019-05-10T19:26:39.302Z,63.90
2019-05-10T19:29:07.929Z,64.20
2019-05-10T19:31:39.805Z,64.60
2019-05-10T19:34:09.246Z,65.20
2019-05-10T19:36:37.243Z,65.80
2019-05-10T19:39:07.436Z,66.20
2019-05-10T19:41:36.021Z,66.50
2019-05-10T19:44:04.873Z,66.90
2019-05-10T19:46:39.092Z,67.40
2019-05-10T19:49:07.430Z,67.80
2019-05-10T19:51:35.107Z,68.20
2019-05-10T19:54:04.178Z,68.30
2019-05-10T19:56:36.530Z,68.70
2019-05-10T19:59:05.514Z,68.60
2019-05-10T20:01:33.595Z,69.20
2019-05-10T20:04:02.241Z,69.50
2019-05-10T20:06:30.873Z,70.00
2019-05-10T20:08:59.661Z,70.40
2019-05-10T20:11:28.191Z,70.70
2019-05-10T20:13:56.875Z,71.30
2019-05-10T20:16:25.686Z,71.70
2019-05-10T20:18:54.270Z,72.70
2019-05-10T20:21:22.970Z,72.70
2019-05-10T20:23:51.534Z,73.00
2019-05-10T20:26:20.353Z,73.50
2019-05-10T20:28:48.985Z,73.80
2019-05-10T20:31:17.795Z,74.20
2019-05-10T20:33:46.410Z,74.30
2019-05-10T20:36:14.995Z,74.40
2019-05-10T20:38:43.567Z,74.70
2019-05-10T20:41:12.543Z,75.00
2019-05-10T20:43:41.218Z,74.90
2019-05-10T20:46:11.589Z,75.30
2019-05-10T20:48:40.257Z,75.40
2019-05-10T20:51:08.874Z,75.50
2019-05-10T20:53:37.523Z,75.80
2019-05-10T20:56:06.138Z,75.80
2019-05-10T20:58:34.722Z,76.10
2019-05-10T21:01:03.531Z,76.20
2019-05-10T21:03:32.132Z,76.10
2019-05-10T21:06:00.889Z,76.20
2019-05-10T21:08:29.520Z,76.10
2019-05-10T21:10:58.102Z,76.10
2019-05-10T21:13:26.784Z,76.60
2019-05-10T21:15:55.438Z,76.40
2019-05-10T21:18:24.047Z,76.50
2019-05-10T21:20:52.622Z,77.20
2019-05-10T21:23:22.768Z,77.70
2019-05-10T21:25:51.327Z,78.50
2019-05-10T21:28:19.969Z,78.80
2019-05-10T21:30:48.538Z,78.80
2019-05-10T21:33:17.294Z,79.30
2019-05-10T21:35:46.037Z,79.20
2019-05-10T21:38:14.606Z,79.40
2019-05-10T21:40:43.404Z,80.00
2019-05-10T21:43:11.993Z,80.40
2019-05-10T21:45:40.563Z,80.50
2019-05-10T21:48:09.185Z,80.80
2019-05-10T21:50:37.766Z,81.70
2019-05-10T21:53:06.517Z,82.30
2019-05-10T21:55:35.130Z,82.50
2019-05-10T21:58:03.781Z,82.20
2019-05-10T22:00:37.192Z,81.80
2019-05-10T22:03:05.983Z,81.50
2019-05-10T22:05:34.630Z,82.00
2019-05-10T22:08:03.240Z,81.40
2019-05-10T22:10:32.176Z,81.40
2019-05-10T22:13:00.745Z,81.50
2019-05-10T22:15:29.366Z,81.80
2019-05-10T22:17:57.928Z,81.70
2019-05-10T22:20:26.606Z,81.90
2019-05-10T22:22:55.239Z,82.00
2019-05-10T22:25:23.808Z,81.70
2019-05-10T22:27:52.411Z,81.30
2019-05-10T22:30:21.248Z,81.80
2019-05-10T22:32:49.847Z,81.20
2019-05-10T22:35:18.514Z,80.90
2019-05-10T22:37:47.471Z,80.70
2019-05-10T22:40:16.637Z,80.40
2019-05-10T22:42:45.275Z,80.30
2019-05-10T22:45:14.216Z,80.20
2019-05-10T22:47:43.239Z,80.10
2019-05-10T22:50:12.487Z,79.90
2019-05-10T22:52:41.363Z,80.40
2019-05-10T22:55:10.660Z,79.50
2019-05-10T22:57:39.303Z,79.40
2019-05-10T23:00:10.279Z,79.00
2019-05-10T23:02:38.907Z,79.00
2019-05-10T23:05:07.579Z,79.20
2019-05-10T23:07:36.170Z,79.50
2019-05-10T23:10:06.415Z,80.00
2019-05-10T23:12:35.008Z,79.20
2019-05-10T23:15:04.585Z,79.00
2019-05-10T23:17:33.219Z,79.00
2019-05-10T23:20:01.848Z,79.70
2019-05-10T23:22:30.487Z,79.30
2019-05-10T23:24:59.074Z,79.60
2019-05-10T23:27:27.718Z,79.60
2019-05-10T23:29:56.293Z,79.80
2019-05-10T23:32:24.914Z,79.80
2019-05-10T23:34:53.498Z,80.00
2019-05-10T23:37:22.142Z,80.30
2019-05-10T23:39:50.743Z,80.10
2019-05-10T23:42:19.809Z,80.10
2019-05-10T23:44:48.447Z,80.40
2019-05-10T23:47:17.089Z,80.60
2019-05-10T23:49:45.805Z,80.70
2019-05-10T23:52:14.401Z,80.40
2019-05-10T23:54:43.008Z,80.70
2019-05-10T23:57:11.578Z,80.70
2019-05-10T23:59:40.148Z,81.20
